createdAt,value
2022-11-03T00:01:35.189Z,95297.25
2022-11-03T00:04:02.960Z,95294.13
2022-11-03T00:06:30.694Z,95283.31
2022-11-03T00:09:01.103Z,95273.38
2022-11-03T00:11:29.687Z,95280.81
2022-11-03T00:13:57.918Z,95272.13
2022-11-03T00:16:25.640Z,95269.19
2022-11-03T00:18:53.437Z,95270.00
2022-11-03T00:21:21.415Z,95268.34
2022-11-03T00:23:49.130Z,95268.72
2022-11-03T00:26:20.846Z,95269.34
2022-11-03T00:28:49.916Z,95271.44
2022-11-03T00:31:18.715Z,95271.66
2022-11-03T00:33:47.054Z,95264.56
2022-11-03T00:36:16.197Z,95272.28
2022-11-03T00:38:44.196Z,95274.78
2022-11-03T00:41:12.574Z,95271.25
2022-11-03T00:43:41.863Z,95271.47
2022-11-03T00:46:11.103Z,95274.81
2022-11-03T00:48:39.353Z,95270.88
2022-11-03T00:51:09.687Z,95273.78
2022-11-03T00:53:39.366Z,95269.22
2022-11-03T00:56:08.075Z,95271.06
2022-11-03T00:58:35.731Z,95259.19
2022-11-03T01:01:07.519Z,95261.09
2022-11-03T01:03:37.074Z,95257.56
2022-11-03T01:06:25.067Z,95255.88
2022-11-03T01:08:52.810Z,95254.88
2022-11-03T01:11:40.044Z,95257.38
2022-11-03T01:14:07.954Z,95252.78
2022-11-03T01:16:37.084Z,95240.53
2022-11-03T01:19:05.483Z,95249.06
2022-11-03T01:21:33.202Z,95253.81
2022-11-03T01:24:01.957Z,95256.13
2022-11-03T01:26:30.896Z,95253.81
2022-11-03T01:29:00.029Z,95243.47
2022-11-03T01:31:28.578Z,95240.94
2022-11-03T01:33:58.493Z,95239.28
2022-11-03T01:36:26.240Z,95239.69
2022-11-03T01:38:55.264Z,95223.91
2022-11-03T01:41:24.746Z,95218.50
2022-11-03T01:44:20.641Z,95214.34
2022-11-03T01:46:51.022Z,95203.75
2022-11-03T01:49:24.488Z,95204.78
2022-11-03T01:51:56.045Z,95200.66
2022-11-03T01:54:25.186Z,95199.19
2022-11-03T01:56:53.476Z,95189.44
2022-11-03T01:59:24.846Z,95190.25
2022-11-03T02:01:52.913Z,95193.38
2022-11-03T02:04:24.111Z,95201.88
2022-11-03T02:06:55.739Z,95186.94
2022-11-03T02:09:23.459Z,95190.25
2022-11-03T02:12:09.637Z,95193.78
2022-11-03T02:14:39.355Z,95189.84
2022-11-03T02:17:09.191Z,95197.31
2022-11-03T02:19:40.902Z,95192.75
2022-11-03T02:22:22.002Z,95178.41
2022-11-03T02:24:54.135Z,95174.47
2022-11-03T02:27:23.733Z,95168.25
2022-11-03T02:29:51.497Z,95158.25
2022-11-03T02:32:22.999Z,95152.84
2022-11-03T02:34:55.518Z,95155.97
2022-11-03T02:37:25.136Z,95151.19
2022-11-03T02:39:55.768Z,95148.69
2022-11-03T02:42:25.930Z,95145.16
2022-11-03T02:44:54.223Z,95139.97
2022-11-03T02:47:22.803Z,95142.06
2022-11-03T02:49:52.351Z,95145.19
2022-11-03T02:52:35.990Z,95129.00
2022-11-03T02:55:10.397Z,95130.84
2022-11-03T02:57:42.148Z,95113.81
2022-11-03T03:00:10.789Z,95110.88
2022-11-03T03:02:41.122Z,95111.72
2022-11-03T03:05:10.122Z,95109.22
2022-11-03T03:07:39.716Z,95107.94
2022-11-03T03:10:10.005Z,95108.81
2022-11-03T03:12:42.648Z,95104.84
2022-11-03T03:15:11.030Z,95108.16
2022-11-03T03:17:45.766Z,95096.94
2022-11-03T03:20:17.167Z,95091.13
2022-11-03T03:22:47.004Z,95093.38
2022-11-03T03:25:16.980Z,95104.59
2022-11-03T03:27:50.001Z,95107.50
2022-11-03T03:30:18.924Z,95106.28
2022-11-03T03:32:50.112Z,95105.84
2022-11-03T03:35:21.169Z,95106.44
2022-11-03T03:37:51.134Z,95104.97
2022-11-03T03:40:22.773Z,95099.13
2022-11-03T03:42:53.586Z,95094.34
2022-11-03T03:45:21.865Z,95085.03
2022-11-03T03:47:52.503Z,95084.00
2022-11-03T03:50:23.585Z,95083.75
2022-11-03T03:52:51.345Z,95072.50
2022-11-03T03:55:20.654Z,95077.50
2022-11-03T03:57:48.533Z,95073.97
2022-11-03T04:00:19.373Z,95079.59
2022-11-03T04:02:47.186Z,95074.19
2022-11-03T04:05:15.002Z,95073.97
2022-11-03T04:07:48.733Z,95064.81
2022-11-03T04:10:16.752Z,95068.00
2022-11-03T04:13:02.611Z,95069.00
2022-11-03T04:15:50.223Z,95069.19
2022-11-03T04:18:35.924Z,95075.69
2022-11-03T04:21:21.303Z,95065.53
2022-11-03T04:23:49.071Z,95068.66
2022-11-03T04:26:18.427Z,95060.56
2022-11-03T04:28:46.465Z,95057.88
2022-11-03T04:31:17.058Z,95050.97
2022-11-03T04:33:45.544Z,95050.41
2022-11-03T04:36:17.534Z,95054.47
2022-11-03T04:38:45.613Z,95046.81
2022-11-03T04:41:16.801Z,95042.06
2022-11-03T04:43:45.515Z,95031.25
2022-11-03T04:46:16.847Z,95030.81
2022-11-03T04:48:45.030Z,95023.72
2022-11-03T04:51:16.327Z,95016.25
2022-11-03T04:53:49.794Z,95016.88
2022-11-03T04:56:20.128Z,95002.28
2022-11-03T04:58:48.477Z,94993.94
2022-11-03T05:01:23.729Z,94989.59
2022-11-03T05:03:53.724Z,94995.59
2022-11-03T05:06:23.579Z,94997.44
2022-11-03T05:08:54.414Z,94989.97
2022-11-03T05:11:25.807Z,94983.09
2022-11-03T05:13:53.613Z,94974.13
2022-11-03T05:16:22.666Z,94971.00
2022-11-03T05:18:51.172Z,94962.47
2022-11-03T05:21:20.601Z,94972.63
2022-11-03T05:23:50.085Z,94969.13
2022-11-03T05:26:19.930Z,94961.22
2022-11-03T05:28:50.515Z,94959.13
2022-11-03T05:31:25.096Z,94955.81
2022-11-03T05:33:53.986Z,94950.63
2022-11-03T05:36:23.906Z,94949.56
2022-11-03T05:38:51.805Z,94948.91
2022-11-03T05:41:23.914Z,94944.13
2022-11-03T05:43:56.942Z,94946.16
2022-11-03T05:46:29.167Z,94944.28
2022-11-03T05:48:56.813Z,94951.31
2022-11-03T05:51:26.693Z,94953.00
2022-11-03T05:53:55.513Z,94953.00
2022-11-03T05:56:25.919Z,94945.91
2022-11-03T05:58:55.164Z,94951.09
2022-11-03T06:01:27.601Z,94947.00
2022-11-03T06:03:55.596Z,94945.09
2022-11-03T06:06:32.002Z,94945.91
2022-11-03T06:09:01.555Z,94949.47
2022-11-03T06:11:33.693Z,94950.28
2022-11-03T06:14:01.361Z,94943.84
2022-11-03T06:16:49.767Z,94945.66
2022-11-03T06:19:23.516Z,94940.25
2022-11-03T06:21:53.529Z,94938.59
2022-11-03T06:24:23.602Z,94933.81
2022-11-03T06:26:53.318Z,94928.41
2022-11-03T06:29:22.171Z,94918.06
2022-11-03T06:31:52.641Z,94920.56
2022-11-03T06:34:34.354Z,94920.56
2022-11-03T06:37:13.622Z,94919.50
2022-11-03T06:39:41.897Z,94927.78
2022-11-03T06:42:13.305Z,94928.22
2022-11-03T06:44:42.562Z,94926.34
2022-11-03T06:47:24.276Z,94925.25
2022-11-03T06:49:53.527Z,94928.34
2022-11-03T06:52:29.950Z,94926.13
2022-11-03T06:55:23.663Z,94923.19
2022-11-03T06:57:54.231Z,94916.81
2022-11-03T07:00:41.071Z,94915.78
2022-11-03T07:03:15.730Z,94918.69
2022-11-03T07:05:45.316Z,94909.00
2022-11-03T07:08:22.825Z,94920.63
2022-11-03T07:10:52.172Z,94916.66
2022-11-03T07:13:21.676Z,94919.56
2022-11-03T07:15:49.541Z,94937.81
2022-11-03T07:18:22.288Z,94930.94
2022-11-03T07:20:50.484Z,94927.75
2022-11-03T07:23:21.106Z,94922.06
2022-11-03T07:25:53.456Z,94925.91
2022-11-03T07:28:22.848Z,94921.25
2022-11-03T07:30:50.714Z,94917.06
2022-11-03T07:33:22.308Z,94918.06
2022-11-03T07:38:39.578Z,94908.63
2022-11-03T07:41:10.570Z,94901.22
2022-11-03T07:43:38.648Z,94897.09
2022-11-03T07:46:08.272Z,94900.41
2022-11-03T07:48:40.380Z,94900.63
2022-11-03T07:51:17.536Z,94886.66
2022-11-03T07:53:47.638Z,94894.16
2022-11-03T07:56:19.676Z,94893.19
2022-11-03T07:58:49.089Z,94880.88
2022-11-03T08:01:27.017Z,94877.84
2022-11-03T08:03:57.874Z,94877.47
2022-11-03T08:06:25.733Z,94865.34
2022-11-03T08:08:53.589Z,94866.09
2022-11-03T08:11:26.110Z,94851.66
2022-11-03T08:13:57.035Z,94844.06
2022-11-03T08:16:24.843Z,94849.84
2022-11-03T08:18:52.689Z,94858.78
2022-11-03T08:21:21.935Z,94844.50
2022-11-03T08:23:49.800Z,94823.06
2022-11-03T08:26:17.605Z,94823.84
2022-11-03T08:28:45.468Z,94826.09
2022-11-03T08:31:13.533Z,94831.03
2022-11-03T08:33:41.920Z,94837.19
2022-11-03T08:36:10.384Z,94825.97
2022-11-03T08:38:39.762Z,94831.59
2022-11-03T08:41:07.736Z,94830.84
2022-11-03T08:43:35.683Z,94831.50
2022-11-03T08:46:15.479Z,94824.81
2022-11-03T08:48:46.182Z,94815.69
2022-11-03T08:51:14.771Z,94806.53
2022-11-03T08:53:44.389Z,94799.81
2022-11-03T08:56:14.254Z,94796.28
2022-11-03T08:58:43.082Z,94797.34
2022-11-03T09:01:11.112Z,94799.94
2022-11-03T09:03:39.298Z,94789.94
2022-11-03T09:06:07.765Z,94794.34
2022-11-03T09:11:25.014Z,94787.16
2022-11-03T09:13:52.956Z,94772.47
2022-11-03T09:16:20.782Z,94774.59
2022-11-03T09:18:48.612Z,94771.78
2022-11-03T09:21:16.513Z,94769.28
2022-11-03T09:23:44.319Z,94767.53
2022-11-03T09:26:12.319Z,94768.47
2022-11-03T09:28:41.637Z,94766.44
2022-11-03T09:31:09.615Z,94765.34
2022-11-03T09:33:37.558Z,94763.78
2022-11-03T09:36:05.694Z,94758.34
2022-11-03T09:38:33.570Z,94761.31
2022-11-03T09:41:02.371Z,94750.31
2022-11-03T09:43:30.610Z,94744.13
2022-11-03T09:46:00.381Z,94738.31
2022-11-03T09:48:28.758Z,94740.56
2022-11-03T09:50:57.133Z,94744.69
2022-11-03T09:53:25.940Z,94732.78
2022-11-03T11:10:31.415Z,94667.97
2022-11-03T12:24:26.127Z,94582.69
2022-11-03T12:42:05.375Z,94559.84
2022-11-03T13:42:20.003Z,94463.88
2022-11-03T13:50:43.953Z,94436.78
2022-11-03T14:24:48.062Z,94414.47
2022-11-03T14:39:41.712Z,94413.63
2022-11-03T14:42:15.977Z,94408.47
2022-11-03T14:44:45.417Z,94412.56
2022-11-03T14:47:19.681Z,94399.69
2022-11-03T14:49:49.086Z,94387.69
2022-11-03T14:56:05.408Z,94375.97
2022-11-03T15:00:29.621Z,94381.28
2022-11-03T17:31:22.620Z,94068.16
2022-11-03T17:33:50.641Z,94050.41
2022-11-03T17:36:19.439Z,94041.69
2022-11-03T17:38:47.312Z,94033.25
2022-11-03T17:41:18.035Z,94031.91
2022-11-03T17:43:48.263Z,94019.88
2022-11-03T17:46:15.904Z,94013.06
2022-11-03T17:48:43.642Z,93999.97
2022-11-03T17:51:13.643Z,94002.13
2022-11-03T17:53:43.022Z,94002.38
2022-11-03T17:56:29.630Z,94002.66
2022-11-03T17:58:59.821Z,93988.75
2022-11-03T18:01:28.162Z,94001.03
2022-11-03T18:03:56.079Z,94004.03
2022-11-03T18:06:23.839Z,94001.31
2022-11-03T18:08:51.566Z,94011.13
2022-11-03T18:11:39.786Z,94006.25
2022-11-03T18:14:08.843Z,94012.25
2022-11-03T18:16:36.578Z,94009.53
2022-11-03T18:19:04.601Z,94011.97
2022-11-03T18:21:32.988Z,94009.53
2022-11-03T18:24:00.636Z,94005.22
2022-11-03T18:26:28.627Z,93997.31
2022-11-03T18:28:56.289Z,93995.41
2022-11-03T18:31:33.796Z,93993.47
2022-11-03T18:34:02.624Z,93985.56
2022-11-03T18:36:31.076Z,93979.06
2022-11-03T18:38:58.870Z,93966.22
2022-11-03T18:41:40.421Z,93963.75
2022-11-03T18:44:20.220Z,93956.69
2022-11-03T18:46:51.289Z,93956.97
2022-11-03T18:49:19.570Z,93946.88
2022-11-03T18:51:50.412Z,93933.53
2022-11-03T18:54:20.523Z,93933.25
2022-11-03T18:56:48.726Z,93932.16
2022-11-03T18:59:21.717Z,93924.00
2022-11-03T19:01:50.865Z,93927.25
2022-11-03T19:04:19.212Z,93907.09
2022-11-03T19:06:48.825Z,93910.38
2022-11-03T19:09:19.674Z,93917.44
2022-11-03T19:11:48.527Z,93910.66
2022-11-03T19:14:19.104Z,93904.38
2022-11-03T19:17:02.176Z,93910.91
2022-11-03T19:19:40.279Z,93902.22
2022-11-03T19:22:12.804Z,93896.47
2022-11-03T19:24:40.430Z,93884.50
2022-11-03T19:27:10.983Z,93861.91
2022-11-03T19:29:40.007Z,93856.19
2022-11-03T19:32:12.886Z,93859.47
2022-11-03T19:34:42.124Z,93862.44
2022-11-03T19:37:11.246Z,93852.38
2022-11-03T19:39:41.129Z,93840.38
2022-11-03T19:42:28.099Z,93844.47
2022-11-03T19:44:56.260Z,93834.38
2022-11-03T19:47:27.052Z,93842.25
2022-11-03T19:49:59.905Z,93829.97
2022-11-03T19:52:29.587Z,93834.63
2022-11-03T19:54:58.206Z,93831.63
2022-11-03T19:57:25.944Z,93838.16
2022-11-03T19:59:58.704Z,93830.81
2022-11-03T20:02:27.890Z,93824.53
2022-11-03T20:04:55.853Z,93813.66
2022-11-03T20:07:30.998Z,93809.56
2022-11-03T20:09:59.229Z,93804.09
2022-11-03T20:12:26.884Z,93805.47
2022-11-03T20:14:54.876Z,93799.75
2022-11-03T20:17:23.844Z,93787.22
2022-11-03T20:19:53.240Z,93792.69
2022-11-03T20:22:27.389Z,93802.47
2022-11-03T20:24:59.571Z,93794.31
2022-11-03T20:27:27.085Z,93782.91
2022-11-03T20:29:54.761Z,93778.03
2022-11-03T20:32:23.063Z,93767.66
2022-11-03T20:34:50.781Z,93757.84
2022-11-03T20:37:20.249Z,93747.75
2022-11-03T20:39:49.556Z,93744.78
2022-11-03T20:42:20.555Z,93739.38
2022-11-03T20:44:48.300Z,93736.09
2022-11-03T20:47:17.365Z,93731.47
2022-11-03T20:49:45.192Z,93735.00
2022-11-03T20:52:14.081Z,93730.38
2022-11-03T20:54:43.238Z,93723.06
2022-11-03T20:57:12.876Z,93712.19
2022-11-03T20:59:41.252Z,93707.84
2022-11-03T21:02:11.765Z,93701.03
2022-11-03T21:04:40.632Z,93699.69
2022-11-03T21:07:10.391Z,93690.13
2022-11-03T21:09:38.470Z,93705.66
2022-11-03T21:12:06.816Z,93705.69
2022-11-03T21:14:35.992Z,93700.50
2022-11-03T21:17:21.339Z,93695.88
2022-11-03T21:20:04.145Z,93692.06
2022-11-03T21:25:24.558Z,93701.31
2022-11-03T21:27:53.638Z,93704.91
2022-11-03T21:30:23.786Z,93702.19
2022-11-03T21:32:51.821Z,93701.91
2022-11-03T21:35:21.328Z,93699.19
2022-11-03T21:37:49.352Z,93708.19
2022-11-03T21:40:17.643Z,93693.50
2022-11-03T21:43:02.787Z,93691.59
2022-11-03T21:45:32.162Z,93687.84
2022-11-03T21:48:18.031Z,93682.94
2022-11-03T21:50:45.989Z,93685.38
2022-11-03T21:53:13.849Z,93692.78
2022-11-03T21:55:41.909Z,93688.97
2022-11-03T21:58:09.860Z,93694.94
2022-11-03T22:00:38.915Z,93693.88
2022-11-03T22:03:07.011Z,93700.69
2022-11-03T22:05:34.881Z,93706.13
2022-11-03T22:08:02.846Z,93711.81
2022-11-03T22:10:30.513Z,93723.53
2022-11-03T22:12:58.160Z,93724.06
2022-11-03T22:15:43.515Z,93724.88
2022-11-03T22:18:13.092Z,93718.31
2022-11-03T22:20:58.757Z,93704.44
2022-11-03T22:23:43.816Z,93710.69
2022-11-03T22:26:29.408Z,93713.19
2022-11-03T22:29:12.527Z,93699.84
2022-11-03T22:31:42.940Z,93712.34
2022-11-03T22:34:29.546Z,93766.56
2022-11-03T22:36:57.356Z,93777.69
2022-11-03T22:39:42.842Z,93789.13
2022-11-03T22:42:29.956Z,93806.53
2022-11-03T22:45:15.304Z,93800.53
2022-11-03T22:47:43.065Z,93812.25
2022-11-03T22:50:12.309Z,93838.09
2022-11-03T22:52:40.143Z,93835.63
2022-11-03T22:55:07.401Z,93844.59
2022-11-03T22:57:35.089Z,93857.91
2022-11-03T23:00:05.533Z,93863.63
2022-11-03T23:02:33.528Z,93856.78
2022-11-03T23:05:01.482Z,93874.47
2022-11-03T23:07:33.063Z,93893.78
2022-11-03T23:10:05.111Z,93900.59
2022-11-03T23:12:32.981Z,93902.78
2022-11-03T23:15:18.113Z,93909.56
2022-11-03T23:18:03.205Z,93907.41
2022-11-03T23:20:48.696Z,93906.84
2022-11-03T23:23:31.697Z,93924.56
2022-11-03T23:25:59.471Z,93925.38
2022-11-03T23:28:27.160Z,93940.38
2022-11-03T23:30:54.849Z,93944.72
2022-11-03T23:33:22.551Z,93953.72
2022-11-03T23:35:50.367Z,93951.81
2022-11-03T23:38:19.589Z,93957.53
2022-11-03T23:40:47.238Z,93957.56
2022-11-03T23:43:14.903Z,93966.00
2022-11-03T23:45:59.930Z,93989.16
2022-11-03T23:48:45.359Z,93981.81
2022-11-03T23:51:13.264Z,94004.16
2022-11-03T23:53:42.497Z,94010.69
2022-11-03T23:56:28.659Z,94003.03
2022-11-03T23:58:56.562Z,94018.59
